Tayabas, Philippines
Current Conditions -  °F | °C
As of 11:00 AM on Wednesday 26 Nov 2014 (Local Time) from RPLL Reporting Station
Scattered Clouds Scattered Clouds  
Wind Chill: 88°   Ceiling: Unl
Heat Index: 96°   Visibility: 6mi
Dew Point: 73°   Wind: 6mph
Humidity: 62%   Direction: NA
Pressure: 29.83"   Gusts: NA
Location:  14.03°N, 121.59°E
Report Text: RPLL 260300Z VRB05KT 9999 SCT023 SCT100 31/23 Q1010 NOSIG RMK A2983
Loading
Personal Weather Stations






























Interactive Weather Map New forecast layout! Learn more

10-Day Weather Forecast

Advertisements
Track Severe Weather on mobile